sensor_id;sensor_type;location;lat;lon;timestamp;P1;durP1;ratioP1;P2;durP2;ratioP2
19205;SDS011;59358;52.134;5.596;2023-12-20T00:02:04;22.95;;;3.65;;
19205;SDS011;59358;52.134;5.596;2023-12-20T00:04:31;19.50;;;4.25;;
19205;SDS011;59358;52.134;5.596;2023-12-20T00:06:57;16.60;;;4.07;;
19205;SDS011;59358;52.134;5.596;2023-12-20T00:09:24;33.42;;;4.93;;
19205;SDS011;59358;52.134;5.596;2023-12-20T00:11:51;18.63;;;3.42;;
19205;SDS011;59358;52.134;5.596;2023-12-20T00:14:19;16.63;;;3.50;;
19205;SDS011;59358;52.134;5.596;2023-12-20T00:16:46;32.72;;;5.20;;
19205;SDS011;59358;52.134;5.596;2023-12-20T00:19:13;25.90;;;4.75;;
19205;SDS011;59358;52.134;5.596;2023-12-20T00:21:40;29.38;;;4.22;;
19205;SDS011;59358;52.134;5.596;2023-12-20T00:24:07;17.73;;;3.83;;
19205;SDS011;59358;52.134;5.596;2023-12-20T00:26:34;24.23;;;4.63;;
19205;SDS011;59358;52.134;5.596;2023-12-20T00:29:00;13.88;;;3.95;;
19205;SDS011;59358;52.134;5.596;2023-12-20T00:31:29;22.73;;;4.50;;
19205;SDS011;59358;52.134;5.596;2023-12-20T00:33:55;23.08;;;4.10;;
19205;SDS011;59358;52.134;5.596;2023-12-20T00:36:22;22.17;;;4.25;;
19205;SDS011;59358;52.134;5.596;2023-12-20T00:38:49;20.55;;;4.15;;
19205;SDS011;59358;52.134;5.596;2023-12-20T00:41:16;22.88;;;4.13;;
19205;SDS011;59358;52.134;5.596;2023-12-20T00:43:43;26.80;;;4.55;;
19205;SDS011;59358;52.134;5.596;2023-12-20T00:46:10;32.97;;;4.75;;
19205;SDS011;59358;52.134;5.596;2023-12-20T00:48:38;30.85;;;4.50;;
19205;SDS011;59358;52.134;5.596;2023-12-20T00:51:07;23.48;;;4.38;;
19205;SDS011;59358;52.134;5.596;2023-12-20T00:53:34;22.48;;;4.32;;
19205;SDS011;59358;52.134;5.596;2023-12-20T00:56:01;21.60;;;4.75;;
19205;SDS011;59358;52.134;5.596;2023-12-20T00:58:27;25.85;;;4.57;;
19205;SDS011;59358;52.134;5.596;2023-12-20T01:00:54;27.50;;;4.88;;
19205;SDS011;59358;52.134;5.596;2023-12-20T01:03:21;25.23;;;4.50;;
19205;SDS011;59358;52.134;5.596;2023-12-20T01:05:49;22.88;;;5.03;;
19205;SDS011;59358;52.134;5.596;2023-12-20T01:08:16;24.58;;;4.75;;
19205;SDS011;59358;52.134;5.596;2023-12-20T01:10:43;20.77;;;4.85;;
19205;SDS011;59358;52.134;5.596;2023-12-20T01:13:11;22.02;;;4.65;;
19205;SDS011;59358;52.134;5.596;2023-12-20T01:15:38;22.67;;;4.45;;
19205;SDS011;59358;52.134;5.596;2023-12-20T01:18:05;28.83;;;5.30;;
19205;SDS011;59358;52.134;5.596;2023-12-20T01:20:32;23.05;;;5.40;;
19205;SDS011;59358;52.134;5.596;2023-12-20T01:23:00;24.40;;;5.38;;
19205;SDS011;59358;52.134;5.596;2023-12-20T01:25:27;26.42;;;5.88;;
19205;SDS011;59358;52.134;5.596;2023-12-20T01:27:53;22.48;;;5.88;;
19205;SDS011;59358;52.134;5.596;2023-12-20T01:30:20;26.60;;;4.88;;
19205;SDS011;59358;52.134;5.596;2023-12-20T01:32:47;30.90;;;5.70;;
19205;SDS011;59358;52.134;5.596;2023-12-20T01:35:13;22.38;;;4.80;;
19205;SDS011;59358;52.134;5.596;2023-12-20T01:37:40;29.13;;;6.68;;
19205;SDS011;59358;52.134;5.596;2023-12-20T01:40:09;26.95;;;5.25;;
19205;SDS011;59358;52.134;5.596;2023-12-20T01:42:36;30.58;;;5.25;;
19205;SDS011;59358;52.134;5.596;2023-12-20T01:45:03;19.95;;;5.22;;
19205;SDS011;59358;52.134;5.596;2023-12-20T01:47:31;25.08;;;4.78;;
19205;SDS011;59358;52.134;5.596;2023-12-20T01:49:58;37.13;;;5.22;;
19205;SDS011;59358;52.134;5.596;2023-12-20T01:52:24;24.58;;;5.47;;
19205;SDS011;59358;52.134;5.596;2023-12-20T01:54:53;23.42;;;5.13;;
19205;SDS011;59358;52.134;5.596;2023-12-20T01:57:27;21.13;;;4.80;;
19205;SDS011;59358;52.134;5.596;2023-12-20T01:59:54;21.52;;;4.45;;
19205;SDS011;59358;52.134;5.596;2023-12-20T02:02:22;22.98;;;5.82;;
19205;SDS011;59358;52.134;5.596;2023-12-20T02:04:48;19.70;;;4.53;;
19205;SDS011;59358;52.134;5.596;2023-12-20T02:07:16;29.17;;;5.07;;
19205;SDS011;59358;52.134;5.596;2023-12-20T02:09:44;26.40;;;4.63;;
19205;SDS011;59358;52.134;5.596;2023-12-20T02:12:11;24.00;;;4.88;;
19205;SDS011;59358;52.134;5.596;2023-12-20T02:14:39;26.55;;;5.38;;
19205;SDS011;59358;52.134;5.596;2023-12-20T02:17:05;25.50;;;6.82;;
19205;SDS011;59358;52.134;5.596;2023-12-20T02:19:32;28.30;;;4.97;;
19205;SDS011;59358;52.134;5.596;2023-12-20T02:22:07;24.67;;;5.60;;
19205;SDS011;59358;52.134;5.596;2023-12-20T02:24:34;21.33;;;4.20;;
19205;SDS011;59358;52.134;5.596;2023-12-20T02:27:01;22.92;;;4.50;;
19205;SDS011;59358;52.134;5.596;2023-12-20T02:29:29;19.17;;;4.57;;
19205;SDS011;59358;52.134;5.596;2023-12-20T02:31:57;24.67;;;4.78;;
19205;SDS011;59358;52.134;5.596;2023-12-20T02:34:23;34.95;;;5.43;;
19205;SDS011;59358;52.134;5.596;2023-12-20T02:36:50;23.98;;;4.78;;
19205;SDS011;59358;52.134;5.596;2023-12-20T02:39:19;21.02;;;4.65;;
19205;SDS011;59358;52.134;5.596;2023-12-20T02:41:46;24.83;;;5.60;;
19205;SDS011;59358;52.134;5.596;2023-12-20T02:44:13;33.25;;;6.10;;
19205;SDS011;59358;52.134;5.596;2023-12-20T02:46:39;22.30;;;5.50;;
19205;SDS011;59358;52.134;5.596;2023-12-20T02:49:07;19.95;;;4.60;;
19205;SDS011;59358;52.134;5.596;2023-12-20T02:51:33;31.75;;;5.30;;
19205;SDS011;59358;52.134;5.596;2023-12-20T02:54:03;24.05;;;4.95;;
19205;SDS011;59358;52.134;5.596;2023-12-20T02:56:31;25.30;;;5.03;;
19205;SDS011;59358;52.134;5.596;2023-12-20T02:58:58;25.70;;;4.72;;
19205;SDS011;59358;52.134;5.596;2023-12-20T03:01:24;21.45;;;4.75;;
19205;SDS011;59358;52.134;5.596;2023-12-20T03:03:51;21.27;;;5.10;;
19205;SDS011;59358;52.134;5.596;2023-12-20T03:06:18;18.45;;;4.95;;
19205;SDS011;59358;52.134;5.596;2023-12-20T03:08:45;24.05;;;5.72;;
19205;SDS011;59358;52.134;5.596;2023-12-20T03:11:12;35.45;;;5.30;;
19205;SDS011;59358;52.134;5.596;2023-12-20T03:13:40;30.08;;;6.32;;
19205;SDS011;59358;52.134;5.596;2023-12-20T03:16:10;27.25;;;5.35;;
19205;SDS011;59358;52.134;5.596;2023-12-20T03:18:37;17.70;;;4.80;;
19205;SDS011;59358;52.134;5.596;2023-12-20T03:21:04;35.55;;;6.95;;
19205;SDS011;59358;52.134;5.596;2023-12-20T03:23:31;34.03;;;7.22;;
19205;SDS011;59358;52.134;5.596;2023-12-20T03:25:58;22.67;;;5.10;;
19205;SDS011;59358;52.134;5.596;2023-12-20T03:28:25;35.03;;;5.93;;
19205;SDS011;59358;52.134;5.596;2023-12-20T03:30:54;37.80;;;5.13;;
19205;SDS011;59358;52.134;5.596;2023-12-20T03:33:20;37.92;;;6.97;;
19205;SDS011;59358;52.134;5.596;2023-12-20T03:35:47;28.23;;;5.75;;
19205;SDS011;59358;52.134;5.596;2023-12-20T03:38:14;31.40;;;4.75;;
19205;SDS011;59358;52.134;5.596;2023-12-20T03:40:41;37.30;;;5.90;;
19205;SDS011;59358;52.134;5.596;2023-12-20T03:43:08;35.05;;;6.00;;
19205;SDS011;59358;52.134;5.596;2023-12-20T03:45:34;29.77;;;6.03;;
19205;SDS011;59358;52.134;5.596;2023-12-20T03:48:03;36.60;;;5.70;;
19205;SDS011;59358;52.134;5.596;2023-12-20T03:50:30;24.70;;;5.68;;
19205;SDS011;59358;52.134;5.596;2023-12-20T03:52:57;29.73;;;4.70;;
19205;SDS011;59358;52.134;5.596;2023-12-20T03:55:24;24.15;;;4.97;;
19205;SDS011;59358;52.134;5.596;2023-12-20T03:57:50;22.75;;;4.30;;
19205;SDS011;59358;52.134;5.596;2023-12-20T04:00:17;28.45;;;5.75;;
19205;SDS011;59358;52.134;5.596;2023-12-20T04:02:44;34.88;;;4.68;;
19205;SDS011;59358;52.134;5.596;2023-12-20T04:05:12;26.33;;;5.25;;
19205;SDS011;59358;52.134;5.596;2023-12-20T04:07:39;18.48;;;4.95;;
19205;SDS011;59358;52.134;5.596;2023-12-20T04:10:06;26.30;;;6.07;;
19205;SDS011;59358;52.134;5.596;2023-12-20T04:12:34;24.63;;;6.07;;
19205;SDS011;59358;52.134;5.596;2023-12-20T04:15:01;43.50;;;6.63;;
19205;SDS011;59358;52.134;5.596;2023-12-20T04:17:33;31.02;;;6.40;;
19205;SDS011;59358;52.134;5.596;2023-12-20T04:20:00;28.80;;;5.35;;
19205;SDS011;59358;52.134;5.596;2023-12-20T04:22:29;29.13;;;5.25;;
19205;SDS011;59358;52.134;5.596;2023-12-20T04:24:55;17.88;;;4.57;;
19205;SDS011;59358;52.134;5.596;2023-12-20T04:27:22;33.60;;;5.75;;
19205;SDS011;59358;52.134;5.596;2023-12-20T04:29:49;25.45;;;4.97;;
19205;SDS011;59358;52.134;5.596;2023-12-20T04:32:15;24.63;;;4.97;;
19205;SDS011;59358;52.134;5.596;2023-12-20T04:34:42;36.45;;;5.30;;
19205;SDS011;59358;52.134;5.596;2023-12-20T04:37:09;27.73;;;4.15;;
19205;SDS011;59358;52.134;5.596;2023-12-20T04:39:37;37.20;;;5.35;;
19205;SDS011;59358;52.134;5.596;2023-12-20T04:42:04;18.13;;;3.85;;
19205;SDS011;59358;52.134;5.596;2023-12-20T04:44:31;23.55;;;4.90;;
19205;SDS011;59358;52.134;5.596;2023-12-20T04:46:57;34.22;;;4.60;;
19205;SDS011;59358;52.134;5.596;2023-12-20T04:49:24;26.83;;;4.53;;
19205;SDS011;59358;52.134;5.596;2023-12-20T04:51:52;29.15;;;4.57;;
19205;SDS011;59358;52.134;5.596;2023-12-20T04:54:19;23.65;;;4.18;;
19205;SDS011;59358;52.134;5.596;2023-12-20T04:56:47;24.88;;;3.95;;
19205;SDS011;59358;52.134;5.596;2023-12-20T04:59:13;25.15;;;4.63;;
19205;SDS011;59358;52.134;5.596;2023-12-20T05:01:40;31.75;;;4.47;;
19205;SDS011;59358;52.134;5.596;2023-12-20T05:04:07;30.58;;;5.15;;
19205;SDS011;59358;52.134;5.596;2023-12-20T05:06:34;19.20;;;3.88;;
19205;SDS011;59358;52.134;5.596;2023-12-20T05:09:00;29.23;;;4.68;;
19205;SDS011;59358;52.134;5.596;2023-12-20T05:11:28;21.80;;;5.05;;
19205;SDS011;59358;52.134;5.596;2023-12-20T05:13:56;22.60;;;5.45;;
19205;SDS011;59358;52.134;5.596;2023-12-20T05:16:22;18.88;;;3.92;;
19205;SDS011;59358;52.134;5.596;2023-12-20T05:18:49;20.58;;;3.90;;
19205;SDS011;59358;52.134;5.596;2023-12-20T05:21:17;16.63;;;4.70;;
19205;SDS011;59358;52.134;5.596;2023-12-20T05:23:44;27.13;;;4.60;;
19205;SDS011;59358;52.134;5.596;2023-12-20T05:26:11;26.05;;;4.82;;
19205;SDS011;59358;52.134;5.596;2023-12-20T05:28:38;28.20;;;5.07;;
19205;SDS011;59358;52.134;5.596;2023-12-20T05:31:06;24.70;;;4.63;;
19205;SDS011;59358;52.134;5.596;2023-12-20T05:33:33;21.63;;;4.35;;
19205;SDS011;59358;52.134;5.596;2023-12-20T05:35:59;26.70;;;4.20;;
19205;SDS011;59358;52.134;5.596;2023-12-20T05:38:26;26.42;;;5.00;;
19205;SDS011;59358;52.134;5.596;2023-12-20T05:40:53;20.90;;;3.97;;
19205;SDS011;59358;52.134;5.596;2023-12-20T05:43:20;23.45;;;4.28;;
19205;SDS011;59358;52.134;5.596;2023-12-20T05:45:46;24.58;;;4.22;;
19205;SDS011;59358;52.134;5.596;2023-12-20T05:48:15;25.05;;;4.20;;
19205;SDS011;59358;52.134;5.596;2023-12-20T05:50:41;22.50;;;4.95;;
19205;SDS011;59358;52.134;5.596;2023-12-20T05:53:08;25.90;;;4.53;;
19205;SDS011;59358;52.134;5.596;2023-12-20T05:55:35;24.30;;;4.63;;
19205;SDS011;59358;52.134;5.596;2023-12-20T05:58:02;27.95;;;5.07;;
19205;SDS011;59358;52.134;5.596;2023-12-20T06:00:28;26.88;;;4.55;;
19205;SDS011;59358;52.134;5.596;2023-12-20T06:02:55;29.20;;;4.25;;
19205;SDS011;59358;52.134;5.596;2023-12-20T06:05:23;26.85;;;4.60;;
19205;SDS011;59358;52.134;5.596;2023-12-20T06:07:50;28.05;;;4.72;;
19205;SDS011;59358;52.134;5.596;2023-12-20T06:10:17;29.42;;;4.47;;
19205;SDS011;59358;52.134;5.596;2023-12-20T06:12:44;18.33;;;3.60;;
19205;SDS011;59358;52.134;5.596;2023-12-20T06:15:12;19.98;;;4.50;;
19205;SDS011;59358;52.134;5.596;2023-12-20T06:17:39;24.95;;;4.63;;
19205;SDS011;59358;52.134;5.596;2023-12-20T06:20:06;24.52;;;4.20;;
19205;SDS011;59358;52.134;5.596;2023-12-20T06:22:35;16.23;;;4.28;;
19205;SDS011;59358;52.134;5.596;2023-12-20T06:25:02;29.80;;;5.13;;
19205;SDS011;59358;52.134;5.596;2023-12-20T06:27:29;26.88;;;4.20;;
19205;SDS011;59358;52.134;5.596;2023-12-20T06:29:57;24.85;;;4.22;;
19205;SDS011;59358;52.134;5.596;2023-12-20T06:32:24;21.63;;;3.47;;
19205;SDS011;59358;52.134;5.596;2023-12-20T06:34:51;24.65;;;4.13;;
19205;SDS011;59358;52.134;5.596;2023-12-20T06:37:17;21.33;;;4.03;;
19205;SDS011;59358;52.134;5.596;2023-12-20T06:39:45;19.75;;;3.97;;
19205;SDS011;59358;52.134;5.596;2023-12-20T06:42:12;24.60;;;4.43;;
19205;SDS011;59358;52.134;5.596;2023-12-20T06:44:39;17.95;;;4.13;;
19205;SDS011;59358;52.134;5.596;2023-12-20T06:47:06;26.50;;;4.35;;
19205;SDS011;59358;52.134;5.596;2023-12-20T06:49:33;22.75;;;4.80;;
19205;SDS011;59358;52.134;5.596;2023-12-20T06:51:59;20.20;;;5.88;;
19205;SDS011;59358;52.134;5.596;2023-12-20T06:54:27;33.70;;;6.22;;
19205;SDS011;59358;52.134;5.596;2023-12-20T06:56:55;24.88;;;4.70;;
19205;SDS011;59358;52.134;5.596;2023-12-20T06:59:22;24.13;;;3.40;;
19205;SDS011;59358;52.134;5.596;2023-12-20T07:01:48;23.35;;;5.25;;
19205;SDS011;59358;52.134;5.596;2023-12-20T07:04:15;25.63;;;4.47;;
19205;SDS011;59358;52.134;5.596;2023-12-20T07:06:45;22.60;;;4.35;;
19205;SDS011;59358;52.134;5.596;2023-12-20T07:09:12;17.50;;;3.70;;
19205;SDS011;59358;52.134;5.596;2023-12-20T07:11:39;16.52;;;4.28;;
19205;SDS011;59358;52.134;5.596;2023-12-20T07:14:07;23.75;;;4.07;;
19205;SDS011;59358;52.134;5.596;2023-12-20T07:16:34;30.77;;;4.70;;
19205;SDS011;59358;52.134;5.596;2023-12-20T07:19:01;21.80;;;5.20;;
19205;SDS011;59358;52.134;5.596;2023-12-20T07:21:28;15.73;;;5.00;;
19205;SDS011;59358;52.134;5.596;2023-12-20T07:23:55;22.40;;;5.35;;
19205;SDS011;59358;52.134;5.596;2023-12-20T07:26:22;29.33;;;5.07;;
19205;SDS011;59358;52.134;5.596;2023-12-20T07:28:49;22.27;;;4.57;;
19205;SDS011;59358;52.134;5.596;2023-12-20T07:31:17;24.10;;;5.30;;
19205;SDS011;59358;52.134;5.596;2023-12-20T07:33:44;18.83;;;3.95;;
19205;SDS011;59358;52.134;5.596;2023-12-20T07:36:11;22.63;;;5.00;;
19205;SDS011;59358;52.134;5.596;2023-12-20T07:38:38;26.13;;;5.88;;
19205;SDS011;59358;52.134;5.596;2023-12-20T07:41:08;20.35;;;4.88;;
19205;SDS011;59358;52.134;5.596;2023-12-20T07:43:35;23.17;;;4.43;;
19205;SDS011;59358;52.134;5.596;2023-12-20T07:46:05;20.55;;;4.03;;
19205;SDS011;59358;52.134;5.596;2023-12-20T07:48:34;18.58;;;4.13;;
19205;SDS011;59358;52.134;5.596;2023-12-20T07:51:01;18.00;;;4.90;;
19205;SDS011;59358;52.134;5.596;2023-12-20T07:53:28;27.20;;;5.78;;
19205;SDS011;59358;52.134;5.596;2023-12-20T07:55:55;23.55;;;4.05;;
19205;SDS011;59358;52.134;5.596;2023-12-20T07:58:22;25.33;;;5.28;;
19205;SDS011;59358;52.134;5.596;2023-12-20T08:00:49;24.65;;;4.47;;
19205;SDS011;59358;52.134;5.596;2023-12-20T08:03:15;25.90;;;5.88;;
19205;SDS011;59358;52.134;5.596;2023-12-20T08:05:44;22.05;;;4.25;;
19205;SDS011;59358;52.134;5.596;2023-12-20T08:08:10;28.00;;;4.68;;
19205;SDS011;59358;52.134;5.596;2023-12-20T08:10:37;18.23;;;3.67;;
19205;SDS011;59358;52.134;5.596;2023-12-20T08:13:04;20.65;;;3.78;;
19205;SDS011;59358;52.134;5.596;2023-12-20T08:15:31;24.83;;;5.00;;
19205;SDS011;59358;52.134;5.596;2023-12-20T08:17:58;23.67;;;4.82;;
19205;SDS011;59358;52.134;5.596;2023-12-20T08:20:25;19.45;;;4.65;;
19205;SDS011;59358;52.134;5.596;2023-12-20T08:22:53;25.90;;;4.70;;
19205;SDS011;59358;52.134;5.596;2023-12-20T08:25:20;24.40;;;4.70;;
19205;SDS011;59358;52.134;5.596;2023-12-20T08:27:47;19.05;;;3.78;;
19205;SDS011;59358;52.134;5.596;2023-12-20T08:30:14;22.95;;;5.20;;
19205;SDS011;59358;52.134;5.596;2023-12-20T08:32:42;27.45;;;5.00;;
19205;SDS011;59358;52.134;5.596;2023-12-20T08:35:09;20.30;;;4.70;;
19205;SDS011;59358;52.134;5.596;2023-12-20T08:37:36;21.52;;;4.20;;
19205;SDS011;59358;52.134;5.596;2023-12-20T08:40:05;30.15;;;5.22;;
19205;SDS011;59358;52.134;5.596;2023-12-20T08:42:32;28.70;;;4.32;;
19205;SDS011;59358;52.134;5.596;2023-12-20T08:44:59;31.73;;;5.13;;
19205;SDS011;59358;52.134;5.596;2023-12-20T08:47:25;24.45;;;4.25;;
19205;SDS011;59358;52.134;5.596;2023-12-20T08:49:52;23.63;;;4.60;;
19205;SDS011;59358;52.134;5.596;2023-12-20T08:52:21;24.48;;;4.22;;
19205;SDS011;59358;52.134;5.596;2023-12-20T08:54:48;24.52;;;4.72;;
19205;SDS011;59358;52.134;5.596;2023-12-20T08:57:18;23.85;;;4.80;;
19205;SDS011;59358;52.134;5.596;2023-12-20T08:59:46;25.08;;;4.22;;
19205;SDS011;59358;52.134;5.596;2023-12-20T09:02:13;24.45;;;4.55;;
19205;SDS011;59358;52.134;5.596;2023-12-20T09:04:40;21.60;;;4.68;;
19205;SDS011;59358;52.134;5.596;2023-12-20T09:07:07;23.98;;;4.78;;
19205;SDS011;59358;52.134;5.596;2023-12-20T09:09:46;24.27;;;4.90;;
19205;SDS011;59358;52.134;5.596;2023-12-20T09:12:13;23.67;;;4.30;;
19205;SDS011;59358;52.134;5.596;2023-12-20T09:14:41;35.78;;;5.07;;
19205;SDS011;59358;52.134;5.596;2023-12-20T09:17:08;19.67;;;4.38;;
19205;SDS011;59358;52.134;5.596;2023-12-20T09:19:36;32.45;;;4.95;;
19205;SDS011;59358;52.134;5.596;2023-12-20T09:22:03;20.75;;;4.63;;
19205;SDS011;59358;52.134;5.596;2023-12-20T09:24:30;27.80;;;6.25;;
19205;SDS011;59358;52.134;5.596;2023-12-20T09:26:57;31.38;;;4.95;;
19205;SDS011;59358;52.134;5.596;2023-12-20T09:29:24;26.70;;;5.05;;
19205;SDS011;59358;52.134;5.596;2023-12-20T09:31:52;23.73;;;4.35;;
19205;SDS011;59358;52.134;5.596;2023-12-20T09:34:18;20.63;;;4.60;;
19205;SDS011;59358;52.134;5.596;2023-12-20T09:36:46;27.02;;;5.18;;
19205;SDS011;59358;52.134;5.596;2023-12-20T09:39:13;20.05;;;4.40;;
19205;SDS011;59358;52.134;5.596;2023-12-20T09:41:41;29.02;;;5.10;;
19205;SDS011;59358;52.134;5.596;2023-12-20T09:44:09;23.10;;;4.95;;
19205;SDS011;59358;52.134;5.596;2023-12-20T09:46:40;21.52;;;5.65;;
19205;SDS011;59358;52.134;5.596;2023-12-20T09:49:11;19.60;;;4.13;;
19205;SDS011;59358;52.134;5.596;2023-12-20T09:51:39;28.33;;;6.57;;
19205;SDS011;59358;52.134;5.596;2023-12-20T09:54:07;31.38;;;6.05;;
19205;SDS011;59358;52.134;5.596;2023-12-20T09:56:36;23.48;;;4.78;;
19205;SDS011;59358;52.134;5.596;2023-12-20T09:59:03;25.25;;;6.03;;
19205;SDS011;59358;52.134;5.596;2023-12-20T10:01:30;28.70;;;5.18;;
19205;SDS011;59358;52.134;5.596;2023-12-20T10:03:57;18.98;;;4.85;;
19205;SDS011;59358;52.134;5.596;2023-12-20T10:06:28;23.38;;;3.97;;
19205;SDS011;59358;52.134;5.596;2023-12-20T10:08:54;41.08;;;5.68;;
19205;SDS011;59358;52.134;5.596;2023-12-20T10:11:21;17.33;;;3.83;;
19205;SDS011;59358;52.134;5.596;2023-12-20T10:13:48;17.83;;;3.65;;
19205;SDS011;59358;52.134;5.596;2023-12-20T10:16:15;28.73;;;4.57;;
19205;SDS011;59358;52.134;5.596;2023-12-20T10:18:42;23.73;;;4.53;;
19205;SDS011;59358;52.134;5.596;2023-12-20T10:21:09;25.23;;;6.07;;
19205;SDS011;59358;52.134;5.596;2023-12-20T10:23:38;17.27;;;4.68;;
19205;SDS011;59358;52.134;5.596;2023-12-20T10:26:05;24.27;;;4.45;;
19205;SDS011;59358;52.134;5.596;2023-12-20T10:28:32;20.92;;;4.28;;
19205;SDS011;59358;52.134;5.596;2023-12-20T10:31:00;29.10;;;4.60;;
19205;SDS011;59358;52.134;5.596;2023-12-20T10:33:27;20.27;;;4.03;;
19205;SDS011;59358;52.134;5.596;2023-12-20T10:35:55;24.33;;;4.22;;
19205;SDS011;59358;52.134;5.596;2023-12-20T10:38:22;20.70;;;3.97;;
19205;SDS011;59358;52.134;5.596;2023-12-20T10:40:50;17.92;;;4.25;;
19205;SDS011;59358;52.134;5.596;2023-12-20T10:43:20;27.88;;;4.53;;
19205;SDS011;59358;52.134;5.596;2023-12-20T10:45:48;20.65;;;4.13;;
19205;SDS011;59358;52.134;5.596;2023-12-20T10:48:15;26.95;;;4.88;;
19205;SDS011;59358;52.134;5.596;2023-12-20T10:50:42;22.20;;;3.80;;
19205;SDS011;59358;52.134;5.596;2023-12-20T10:53:10;15.95;;;3.80;;
19205;SDS011;59358;52.134;5.596;2023-12-20T10:55:39;22.98;;;3.90;;
19205;SDS011;59358;52.134;5.596;2023-12-20T10:58:08;24.13;;;4.75;;
19205;SDS011;59358;52.134;5.596;2023-12-20T11:00:35;23.10;;;3.78;;
19205;SDS011;59358;52.134;5.596;2023-12-20T11:03:06;18.95;;;4.05;;
19205;SDS011;59358;52.134;5.596;2023-12-20T11:05:36;22.73;;;3.75;;
19205;SDS011;59358;52.134;5.596;2023-12-20T11:08:09;22.63;;;4.07;;
19205;SDS011;59358;52.134;5.596;2023-12-20T11:10:43;15.30;;;3.70;;
19205;SDS011;59358;52.134;5.596;2023-12-20T11:13:22;14.15;;;3.42;;
19205;SDS011;59358;52.134;5.596;2023-12-20T11:15:53;18.35;;;3.30;;
19205;SDS011;59358;52.134;5.596;2023-12-20T11:18:20;16.38;;;4.60;;
19205;SDS011;59358;52.134;5.596;2023-12-20T11:20:55;16.83;;;3.55;;
19205;SDS011;59358;52.134;5.596;2023-12-20T11:23:26;16.45;;;4.18;;
19205;SDS011;59358;52.134;5.596;2023-12-20T11:25:53;20.85;;;4.00;;
19205;SDS011;59358;52.134;5.596;2023-12-20T11:28:25;23.10;;;4.35;;
19205;SDS011;59358;52.134;5.596;2023-12-20T11:30:53;20.42;;;4.32;;
19205;SDS011;59358;52.134;5.596;2023-12-20T11:33:21;19.20;;;3.78;;
19205;SDS011;59358;52.134;5.596;2023-12-20T11:35:48;13.13;;;3.25;;
19205;SDS011;59358;52.134;5.596;2023-12-20T11:38:15;16.98;;;3.38;;
19205;SDS011;59358;52.134;5.596;2023-12-20T11:40:42;17.33;;;3.25;;
19205;SDS011;59358;52.134;5.596;2023-12-20T11:43:09;15.30;;;3.03;;
19205;SDS011;59358;52.134;5.596;2023-12-20T11:45:38;20.15;;;4.43;;
19205;SDS011;59358;52.134;5.596;2023-12-20T11:48:16;15.63;;;4.07;;
19205;SDS011;59358;52.134;5.596;2023-12-20T11:50:44;20.48;;;3.90;;
19205;SDS011;59358;52.134;5.596;2023-12-20T11:53:11;15.63;;;3.10;;
19205;SDS011;59358;52.134;5.596;2023-12-20T11:55:38;16.60;;;3.15;;
19205;SDS011;59358;52.134;5.596;2023-12-20T11:58:05;17.88;;;3.13;;
19205;SDS011;59358;52.134;5.596;2023-12-20T12:00:33;21.35;;;3.65;;
19205;SDS011;59358;52.134;5.596;2023-12-20T12:03:02;31.17;;;4.57;;
19205;SDS011;59358;52.134;5.596;2023-12-20T12:05:30;14.30;;;3.85;;
19205;SDS011;59358;52.134;5.596;2023-12-20T12:07:58;20.52;;;5.25;;
19205;SDS011;59358;52.134;5.596;2023-12-20T12:10:25;19.38;;;4.25;;
19205;SDS011;59358;52.134;5.596;2023-12-20T12:12:51;15.82;;;3.80;;
19205;SDS011;59358;52.134;5.596;2023-12-20T12:15:18;15.70;;;4.28;;
19205;SDS011;59358;52.134;5.596;2023-12-20T12:17:52;12.82;;;3.40;;
19205;SDS011;59358;52.134;5.596;2023-12-20T12:20:21;18.17;;;4.28;;
19205;SDS011;59358;52.134;5.596;2023-12-20T12:22:56;12.18;;;3.25;;
19205;SDS011;59358;52.134;5.596;2023-12-20T12:25:24;19.17;;;3.88;;
19205;SDS011;59358;52.134;5.596;2023-12-20T12:27:52;14.40;;;2.78;;
19205;SDS011;59358;52.134;5.596;2023-12-20T12:30:18;13.48;;;3.35;;
19205;SDS011;59358;52.134;5.596;2023-12-20T12:32:46;13.88;;;3.00;;
19205;SDS011;59358;52.134;5.596;2023-12-20T12:35:13;13.85;;;3.20;;
19205;SDS011;59358;52.134;5.596;2023-12-20T12:37:42;14.55;;;3.03;;
19205;SDS011;59358;52.134;5.596;2023-12-20T12:40:09;18.17;;;3.25;;
19205;SDS011;59358;52.134;5.596;2023-12-20T12:42:38;20.15;;;3.35;;
19205;SDS011;59358;52.134;5.596;2023-12-20T12:45:06;12.70;;;3.30;;
19205;SDS011;59358;52.134;5.596;2023-12-20T12:47:33;14.98;;;2.92;;
19205;SDS011;59358;52.134;5.596;2023-12-20T12:50:00;16.38;;;3.20;;
19205;SDS011;59358;52.134;5.596;2023-12-20T12:52:27;16.48;;;3.53;;
19205;SDS011;59358;52.134;5.596;2023-12-20T12:54:55;15.98;;;3.03;;
19205;SDS011;59358;52.134;5.596;2023-12-20T12:57:22;16.98;;;2.75;;
19205;SDS011;59358;52.134;5.596;2023-12-20T12:59:49;15.07;;;3.13;;
19205;SDS011;59358;52.134;5.596;2023-12-20T13:02:16;17.10;;;3.75;;
19205;SDS011;59358;52.134;5.596;2023-12-20T13:04:43;16.20;;;3.38;;
19205;SDS011;59358;52.134;5.596;2023-12-20T13:07:09;15.20;;;3.30;;
19205;SDS011;59358;52.134;5.596;2023-12-20T13:09:36;14.73;;;3.20;;
19205;SDS011;59358;52.134;5.596;2023-12-20T13:12:06;18.58;;;3.50;;
19205;SDS011;59358;52.134;5.596;2023-12-20T13:14:34;23.23;;;3.05;;
19205;SDS011;59358;52.134;5.596;2023-12-20T13:17:02;16.52;;;3.17;;
19205;SDS011;59358;52.134;5.596;2023-12-20T13:19:29;18.73;;;2.97;;
19205;SDS011;59358;52.134;5.596;2023-12-20T13:21:56;17.77;;;3.30;;
19205;SDS011;59358;52.134;5.596;2023-12-20T13:24:23;15.18;;;3.95;;
19205;SDS011;59358;52.134;5.596;2023-12-20T13:26:50;15.52;;;4.22;;
19205;SDS011;59358;52.134;5.596;2023-12-20T13:29:18;22.50;;;3.28;;
19205;SDS011;59358;52.134;5.596;2023-12-20T13:31:45;18.77;;;3.90;;
19205;SDS011;59358;52.134;5.596;2023-12-20T13:34:11;14.35;;;3.20;;
19205;SDS011;59358;52.134;5.596;2023-12-20T13:36:38;13.90;;;3.58;;
19205;SDS011;59358;52.134;5.596;2023-12-20T13:39:05;16.48;;;4.00;;
19205;SDS011;59358;52.134;5.596;2023-12-20T13:41:33;14.48;;;3.20;;
19205;SDS011;59358;52.134;5.596;2023-12-20T13:43:59;21.50;;;4.60;;
19205;SDS011;59358;52.134;5.596;2023-12-20T13:46:29;17.27;;;3.83;;
19205;SDS011;59358;52.134;5.596;2023-12-20T13:48:56;16.98;;;3.70;;
19205;SDS011;59358;52.134;5.596;2023-12-20T13:51:23;17.58;;;3.47;;
19205;SDS011;59358;52.134;5.596;2023-12-20T13:53:50;23.63;;;4.45;;
19205;SDS011;59358;52.134;5.596;2023-12-20T13:56:16;17.23;;;4.25;;
19205;SDS011;59358;52.134;5.596;2023-12-20T13:58:45;21.13;;;4.25;;
19205;SDS011;59358;52.134;5.596;2023-12-20T14:01:12;21.45;;;4.30;;
19205;SDS011;59358;52.134;5.596;2023-12-20T14:03:40;17.88;;;3.42;;
19205;SDS011;59358;52.134;5.596;2023-12-20T14:06:07;20.98;;;3.47;;
19205;SDS011;59358;52.134;5.596;2023-12-20T14:08:34;17.23;;;3.13;;
19205;SDS011;59358;52.134;5.596;2023-12-20T14:11:01;16.25;;;3.20;;
19205;SDS011;59358;52.134;5.596;2023-12-20T14:13:28;17.35;;;3.03;;
19205;SDS011;59358;52.134;5.596;2023-12-20T14:15:56;17.42;;;3.58;;
19205;SDS011;59358;52.134;5.596;2023-12-20T14:18:25;19.85;;;4.00;;
19205;SDS011;59358;52.134;5.596;2023-12-20T14:20:53;23.58;;;3.42;;
19205;SDS011;59358;52.134;5.596;2023-12-20T14:23:20;16.95;;;3.25;;
19205;SDS011;59358;52.134;5.596;2023-12-20T14:25:47;20.52;;;3.55;;
19205;SDS011;59358;52.134;5.596;2023-12-20T14:28:14;18.95;;;4.10;;
19205;SDS011;59358;52.134;5.596;2023-12-20T14:30:41;14.90;;;3.53;;
19205;SDS011;59358;52.134;5.596;2023-12-20T14:33:08;14.18;;;3.58;;
19205;SDS011;59358;52.134;5.596;2023-12-20T14:35:35;18.02;;;3.50;;